createdAt,value
2022-09-09T00:02:30.459Z,4.18
2022-09-09T00:05:28.526Z,4.25
2022-09-09T00:08:21.284Z,4.57
2022-09-09T00:11:13.803Z,3.92
2022-09-09T00:14:05.256Z,4.40
2022-09-09T00:16:56.683Z,3.85
2022-09-09T00:19:54.549Z,3.70
2022-09-09T00:22:51.065Z,4.50
2022-09-09T00:25:43.262Z,4.53
2022-09-09T00:28:33.195Z,3.50
2022-09-09T00:31:26.082Z,4.40
2022-09-09T00:34:14.600Z,5.00
2022-09-09T00:37:01.053Z,4.60
2022-09-09T00:39:52.976Z,5.18
2022-09-09T00:42:43.906Z,4.40
2022-09-09T00:45:55.997Z,4.88
2022-09-09T00:49:20.153Z,5.03
2022-09-09T00:52:35.970Z,4.90
2022-09-09T00:55:34.790Z,5.43
2022-09-09T00:58:20.760Z,4.60
2022-09-09T01:01:09.924Z,5.07
2022-09-09T01:04:00.509Z,4.95
2022-09-09T01:06:53.420Z,5.20
2022-09-09T01:09:52.433Z,5.72
2022-09-09T01:12:43.130Z,5.47
2022-09-09T01:15:33.954Z,5.53
2022-09-09T01:18:24.041Z,7.13
2022-09-09T01:21:26.886Z,6.05
2022-09-09T01:24:21.744Z,5.65
2022-09-09T01:27:42.110Z,5.70
2022-09-09T01:30:29.548Z,6.55
2022-09-09T01:33:19.394Z,5.25
2022-09-09T01:36:14.636Z,6.43
2022-09-09T01:39:06.730Z,5.32
2022-09-09T01:41:56.077Z,5.07
2022-09-09T01:44:45.331Z,5.35
2022-09-09T01:47:31.941Z,4.72
2022-09-09T01:50:38.222Z,5.78
2022-09-09T01:53:25.388Z,6.22
2022-09-09T01:56:25.202Z,6.30
2022-09-09T01:59:33.892Z,6.35
2022-09-09T02:02:28.196Z,8.15
2022-09-09T02:05:35.473Z,7.72
2022-09-09T02:08:38.660Z,7.38
2022-09-09T02:11:29.753Z,6.75
2022-09-09T02:14:31.631Z,7.13
2022-09-09T02:17:25.945Z,6.05
2022-09-09T02:20:30.551Z,5.40
2022-09-09T02:23:21.901Z,6.57
2022-09-09T02:26:15.852Z,4.70
2022-09-09T02:29:07.153Z,4.95
2022-09-09T02:31:57.534Z,4.43
2022-09-09T02:34:52.678Z,4.57
2022-09-09T02:37:40.687Z,4.55
2022-09-09T02:40:27.057Z,4.00
2022-09-09T02:43:19.677Z,5.82
2022-09-09T02:46:37.992Z,4.50
2022-09-09T02:49:34.045Z,4.70
2022-09-09T02:52:26.909Z,4.60
2022-09-09T02:55:37.856Z,6.53
2022-09-09T02:58:24.350Z,4.97
2022-09-09T03:01:16.691Z,4.60
2022-09-09T03:04:06.401Z,5.57
2022-09-09T03:06:52.932Z,5.13
2022-09-09T03:09:41.157Z,4.72
2022-09-09T03:15:24.911Z,5.35
2022-09-09T03:18:10.920Z,5.60
2022-09-09T03:20:56.891Z,7.13
2022-09-09T03:23:43.628Z,5.07
2022-09-09T03:26:30.210Z,6.35
2022-09-09T03:29:18.309Z,5.97
2022-09-09T03:32:04.754Z,5.68
2022-09-09T03:34:51.226Z,7.45
2022-09-09T03:37:39.717Z,6.18
2022-09-09T03:40:26.004Z,5.65
2022-09-09T03:43:13.355Z,5.70
2022-09-09T03:45:59.785Z,6.03
2022-09-09T03:48:47.386Z,5.78
2022-09-09T03:51:37.742Z,6.05
2022-09-09T03:54:25.762Z,8.48
2022-09-09T03:57:12.039Z,6.38
2022-09-09T03:59:59.004Z,6.45
2022-09-09T04:02:45.318Z,6.60
2022-09-09T04:05:35.033Z,5.55
2022-09-09T04:08:21.993Z,5.80
2022-09-09T04:11:10.901Z,5.22
2022-09-09T04:13:58.543Z,6.75
2022-09-09T04:16:45.557Z,5.40
2022-09-09T04:19:32.429Z,6.45
2022-09-09T04:22:19.163Z,6.22
2022-09-09T04:25:07.589Z,6.30
2022-09-09T04:27:59.110Z,5.70
2022-09-09T04:30:47.246Z,6.90
2022-09-09T04:33:36.996Z,6.43
2022-09-09T04:36:25.853Z,6.05
2022-09-09T04:39:16.877Z,6.15
2022-09-09T04:42:04.220Z,7.15
2022-09-09T04:44:50.599Z,6.15
2022-09-09T04:47:37.466Z,7.07
2022-09-09T04:50:23.771Z,6.13
2022-09-09T04:53:18.244Z,6.20
2022-09-09T04:56:13.913Z,7.50
2022-09-09T04:59:18.271Z,6.90
2022-09-09T05:02:08.245Z,7.07
2022-09-09T05:04:55.004Z,6.80
2022-09-09T05:07:41.284Z,6.10
2022-09-09T05:10:27.255Z,6.05
2022-09-09T05:13:14.049Z,6.95
2022-09-09T05:15:59.950Z,7.13
2022-09-09T05:18:47.108Z,6.25
2022-09-09T05:21:33.940Z,6.80
2022-09-09T05:24:20.508Z,6.22
2022-09-09T05:27:13.065Z,7.18
2022-09-09T05:29:59.618Z,7.57
2022-09-09T05:32:45.700Z,7.35
2022-09-09T05:35:33.057Z,7.82
2022-09-09T05:38:19.512Z,8.13
2022-09-09T05:41:06.583Z,8.88
2022-09-09T05:43:52.437Z,9.50
2022-09-09T05:46:39.373Z,10.60
2022-09-09T05:49:27.578Z,10.43
2022-09-09T05:52:13.489Z,9.80
2022-09-09T05:55:00.197Z,10.27
2022-09-09T05:57:50.259Z,10.00
2022-09-09T06:00:36.485Z,10.75
2022-09-09T06:03:24.538Z,10.95
2022-09-09T06:06:13.476Z,8.55
2022-09-09T06:08:59.973Z,8.98
2022-09-09T06:11:58.783Z,9.40
2022-09-09T06:14:46.577Z,9.52
2022-09-09T06:17:34.637Z,9.20
2022-09-09T06:20:21.099Z,10.43
2022-09-09T06:23:07.582Z,10.15
2022-09-09T06:26:10.238Z,10.73
2022-09-09T06:28:58.269Z,9.55
2022-09-09T06:31:44.912Z,9.23
2022-09-09T06:34:37.584Z,9.00
2022-09-09T06:37:25.086Z,9.23
2022-09-09T06:40:12.053Z,9.35
2022-09-09T06:43:01.955Z,9.88
2022-09-09T06:45:57.223Z,9.52
2022-09-09T06:48:45.471Z,9.25
2022-09-09T06:51:37.186Z,9.15
2022-09-09T06:54:26.294Z,8.82
2022-09-09T06:57:36.061Z,8.43
2022-09-09T07:00:21.209Z,7.65
2022-09-09T07:03:07.193Z,7.88
2022-09-09T07:05:57.763Z,8.02
2022-09-09T07:08:56.427Z,7.28
2022-09-09T07:11:49.091Z,6.88
2022-09-09T07:14:38.519Z,7.32
2022-09-09T07:17:29.209Z,7.07
2022-09-09T07:20:16.619Z,7.18
2022-09-09T07:23:06.397Z,6.70
2022-09-09T07:25:53.785Z,7.55
2022-09-09T07:28:42.304Z,6.88
2022-09-09T07:31:34.259Z,6.78
2022-09-09T07:34:20.904Z,7.07
2022-09-09T07:37:07.473Z,6.55
2022-09-09T07:39:54.685Z,7.65
2022-09-09T07:42:41.132Z,7.72
2022-09-09T07:45:32.394Z,7.22
2022-09-09T07:48:18.231Z,7.30
2022-09-09T07:51:09.110Z,8.27
2022-09-09T07:54:02.856Z,6.85
2022-09-09T07:56:50.391Z,7.53
2022-09-09T07:59:36.644Z,7.68
2022-09-09T08:02:24.769Z,7.93
2022-09-09T08:05:11.417Z,7.32
2022-09-09T08:08:01.310Z,8.13
2022-09-09T08:10:47.619Z,7.70
2022-09-09T08:13:38.846Z,7.85
2022-09-09T08:16:28.258Z,7.90
2022-09-09T08:19:16.438Z,7.93
2022-09-09T08:22:04.220Z,7.47
2022-09-09T08:24:53.103Z,8.02
2022-09-09T08:27:39.671Z,7.63
2022-09-09T08:30:26.231Z,7.85
2022-09-09T08:33:12.319Z,7.22
2022-09-09T08:35:58.212Z,6.43
2022-09-09T08:38:47.786Z,6.35
2022-09-09T08:42:27.538Z,6.70
2022-09-09T08:45:44.305Z,7.80
2022-09-09T08:48:59.109Z,6.22
2022-09-09T08:51:44.935Z,6.65
2022-09-09T08:54:51.585Z,5.90
2022-09-09T08:57:41.283Z,6.40
2022-09-09T09:00:43.625Z,7.25
2022-09-09T09:03:54.157Z,7.32
2022-09-09T09:07:05.835Z,7.65
2022-09-09T09:10:03.355Z,6.18
2022-09-09T09:12:55.096Z,7.38
2022-09-09T09:15:44.955Z,6.35
2022-09-09T09:18:32.412Z,6.88
2022-09-09T09:21:45.896Z,6.50
2022-09-09T09:25:00.229Z,6.47
2022-09-09T09:28:01.551Z,5.72
2022-09-09T09:31:10.117Z,6.22
2022-09-09T09:33:59.164Z,6.63
2022-09-09T09:36:57.958Z,7.03
2022-09-09T09:40:03.043Z,7.45
2022-09-09T09:43:00.354Z,8.18
2022-09-09T09:46:06.963Z,8.93
2022-09-09T09:49:06.380Z,8.70
2022-09-09T09:51:53.567Z,8.43
2022-09-09T09:54:43.061Z,8.93
2022-09-09T09:57:34.500Z,8.43
2022-09-09T10:00:26.616Z,8.20
2022-09-09T10:03:25.816Z,9.80
2022-09-09T10:06:13.517Z,9.90
2022-09-09T10:09:00.634Z,8.80
2022-09-09T10:12:15.397Z,9.50
2022-09-09T10:15:33.179Z,10.05
2022-09-09T10:18:37.395Z,9.40
2022-09-09T10:24:30.915Z,11.00
2022-09-09T10:27:48.078Z,11.38
2022-09-09T10:31:08.232Z,10.57
2022-09-09T10:34:07.358Z,10.85
2022-09-09T10:36:53.657Z,11.50
2022-09-09T10:39:43.751Z,11.93
2022-09-09T10:42:33.336Z,11.43
2022-09-09T10:45:44.203Z,12.30
2022-09-09T10:48:55.945Z,10.80
2022-09-09T10:52:11.933Z,11.30
2022-09-09T10:55:11.238Z,10.63
2022-09-09T10:58:01.028Z,9.75
2022-09-09T11:00:59.587Z,8.98
2022-09-09T11:03:53.520Z,9.73
2022-09-09T11:06:47.401Z,10.20
2022-09-09T11:09:54.275Z,9.52
2022-09-09T11:15:55.936Z,10.65
2022-09-09T11:18:46.634Z,10.23
2022-09-09T11:21:38.677Z,9.77
2022-09-09T11:24:37.362Z,9.43
2022-09-09T11:27:44.358Z,8.75
2022-09-09T11:30:56.040Z,9.13
2022-09-09T11:33:59.554Z,9.35
2022-09-09T11:37:01.242Z,7.60
2022-09-09T11:39:53.536Z,6.07
2022-09-09T11:42:40.337Z,5.28
2022-09-09T11:45:29.755Z,5.10
2022-09-09T11:48:33.470Z,5.43
2022-09-09T11:51:22.414Z,4.68
2022-09-09T11:54:36.014Z,4.60
2022-09-09T11:57:48.917Z,5.00
2022-09-09T12:00:45.395Z,5.75
2022-09-09T12:03:37.062Z,5.38
2022-09-09T12:06:32.990Z,4.97
2022-09-09T12:09:53.716Z,5.45
2022-09-09T12:12:43.907Z,5.10
2022-09-09T12:15:30.754Z,5.20
2022-09-09T12:18:42.423Z,5.00
2022-09-09T12:21:55.736Z,3.63
2022-09-09T12:24:53.054Z,4.72
2022-09-09T12:28:10.841Z,4.75
2022-09-09T12:31:05.961Z,4.60
2022-09-09T12:33:53.813Z,5.03
2022-09-09T12:36:42.203Z,4.25
2022-09-09T12:39:37.503Z,5.78
2022-09-09T12:42:25.496Z,5.25
2022-09-09T12:45:21.495Z,4.88
2022-09-09T12:48:10.415Z,4.30
2022-09-09T12:50:57.259Z,4.68
2022-09-09T12:53:43.424Z,4.60
2022-09-09T12:56:32.314Z,4.65
2022-09-09T12:59:38.904Z,4.32
2022-09-09T13:02:31.465Z,3.72
2022-09-09T13:05:37.760Z,4.47
2022-09-09T13:08:23.834Z,5.32
2022-09-09T13:11:17.950Z,4.18
2022-09-09T13:17:01.866Z,3.70
2022-09-09T13:19:48.440Z,4.05
2022-09-09T13:22:39.819Z,4.55
2022-09-09T13:25:28.625Z,4.22
2022-09-09T13:28:26.922Z,4.60
2022-09-09T13:31:30.920Z,3.70
2022-09-09T13:34:32.500Z,4.03
2022-09-09T13:37:38.252Z,4.20
2022-09-09T13:40:25.433Z,4.35
2022-09-09T13:43:22.241Z,4.22
2022-09-09T13:46:23.803Z,3.88
2022-09-09T13:49:12.510Z,3.90
2022-09-09T13:52:12.889Z,3.90
2022-09-09T13:55:00.389Z,3.97
2022-09-09T13:58:00.165Z,4.43
2022-09-09T14:00:47.746Z,4.43
2022-09-09T14:03:34.886Z,4.95
2022-09-09T14:06:22.842Z,4.25
2022-09-09T14:09:13.430Z,4.72
2022-09-09T14:12:00.687Z,4.45
2022-09-09T14:14:46.489Z,5.25
2022-09-09T14:17:32.755Z,4.25
2022-09-09T14:20:20.197Z,4.43
2022-09-09T14:23:07.530Z,11.38
2022-09-09T14:25:53.494Z,4.13
2022-09-09T14:28:56.731Z,3.53
2022-09-09T14:31:43.048Z,4.03
2022-09-09T14:34:29.142Z,3.78
2022-09-09T14:37:15.297Z,3.53
2022-09-09T14:40:01.261Z,3.85
2022-09-09T14:42:47.545Z,4.18
2022-09-09T14:45:33.597Z,3.03
2022-09-09T14:48:20.103Z,3.50
2022-09-09T14:51:11.248Z,3.80
2022-09-09T14:54:02.718Z,3.25
2022-09-09T14:56:48.736Z,3.25
2022-09-09T14:59:35.472Z,3.17
2022-09-09T15:02:21.300Z,3.47
2022-09-09T15:05:07.492Z,3.78
2022-09-09T15:07:53.496Z,2.85
2022-09-09T15:10:42.018Z,2.47
2022-09-09T15:13:28.117Z,2.47
2022-09-09T15:16:19.050Z,2.85
2022-09-09T15:19:05.319Z,2.25
2022-09-09T15:21:51.518Z,2.35
2022-09-09T15:24:37.753Z,2.17
2022-09-09T15:27:24.822Z,3.35
2022-09-09T15:30:11.760Z,2.92
2022-09-09T15:32:58.022Z,2.97
2022-09-09T15:35:43.990Z,2.08
2022-09-09T15:38:32.471Z,2.38
2022-09-09T15:41:20.776Z,1.98
2022-09-09T15:44:07.162Z,2.20
2022-09-09T15:46:54.702Z,2.17
2022-09-09T15:49:40.732Z,2.60
2022-09-09T15:52:26.739Z,2.28
2022-09-09T15:55:12.775Z,2.13
2022-09-09T15:57:58.744Z,2.58
2022-09-09T16:00:46.584Z,2.08
2022-09-09T16:03:41.630Z,3.05
2022-09-09T16:06:31.600Z,2.70
2022-09-09T16:09:17.908Z,2.65
2022-09-09T16:12:08.781Z,2.70
2022-09-09T16:14:55.829Z,2.30
2022-09-09T16:17:41.678Z,3.47
2022-09-09T16:20:27.685Z,6.18
2022-09-09T16:23:13.763Z,4.28
2022-09-09T16:26:03.689Z,2.92
2022-09-09T16:28:51.653Z,3.17
2022-09-09T16:31:38.749Z,3.25
2022-09-09T16:34:26.231Z,3.70
2022-09-09T16:37:12.233Z,3.90
2022-09-09T16:39:58.426Z,4.40
2022-09-09T16:42:47.190Z,4.53
2022-09-09T16:45:33.732Z,6.15
2022-09-09T16:48:20.561Z,5.85
2022-09-09T16:51:11.583Z,5.93
2022-09-09T16:54:00.429Z,6.18
2022-09-09T16:56:48.789Z,7.13
2022-09-09T16:59:35.017Z,5.80
2022-09-09T17:02:21.207Z,7.18
2022-09-09T17:05:07.803Z,7.60
2022-09-09T17:07:58.349Z,7.75
2022-09-09T17:10:44.402Z,5.68
2022-09-09T17:13:31.141Z,6.43
2022-09-09T17:16:19.776Z,7.93
2022-09-09T17:19:05.992Z,8.10
2022-09-09T17:22:15.628Z,7.90
2022-09-09T17:24:58.423Z,6.75
2022-09-09T17:27:45.090Z,6.70
2022-09-09T17:30:35.022Z,7.28
2022-09-09T17:33:21.740Z,7.43
2022-09-09T17:36:09.899Z,8.18
2022-09-09T17:38:57.002Z,8.65
2022-09-09T17:41:42.926Z,10.82
2022-09-09T17:44:29.743Z,11.85
2022-09-09T17:47:15.597Z,11.02
2022-09-09T17:50:02.139Z,12.68
2022-09-09T17:52:48.106Z,12.48
2022-09-09T17:55:34.209Z,13.10
2022-09-09T17:58:22.383Z,14.82
2022-09-09T18:01:12.630Z,13.55
2022-09-09T18:04:02.097Z,12.30
2022-09-09T18:06:51.703Z,12.80
2022-09-09T18:09:39.021Z,12.13
2022-09-09T18:12:25.310Z,11.93
2022-09-09T18:15:12.705Z,11.55
2022-09-09T18:18:02.469Z,8.07
2022-09-09T18:21:09.066Z,9.30
2022-09-09T18:23:54.973Z,9.68
2022-09-09T18:26:42.007Z,10.88
2022-09-09T18:29:28.339Z,9.70
2022-09-09T18:32:15.096Z,9.48
2022-09-09T18:35:01.583Z,8.00
2022-09-09T18:37:48.410Z,7.97
2022-09-09T18:40:34.313Z,9.27
2022-09-09T18:43:20.420Z,7.45
2022-09-09T18:46:06.769Z,7.72
2022-09-09T18:48:53.351Z,8.50
2022-09-09T18:51:41.243Z,9.30
2022-09-09T18:54:30.410Z,8.82
2022-09-09T18:57:16.610Z,9.25
2022-09-09T19:00:03.936Z,8.55
2022-09-09T19:02:53.193Z,8.40
2022-09-09T19:05:42.540Z,10.30
2022-09-09T19:08:28.869Z,8.98
2022-09-09T19:11:19.101Z,10.20
2022-09-09T19:14:10.588Z,11.00
2022-09-09T19:16:56.903Z,12.93
2022-09-09T19:19:43.669Z,11.73
2022-09-09T19:22:32.232Z,13.73
2022-09-09T19:25:21.111Z,10.93
2022-09-09T19:28:09.983Z,10.70
2022-09-09T19:30:56.403Z,10.35
2022-09-09T19:33:47.125Z,10.40
2022-09-09T19:36:33.324Z,11.05
2022-09-09T19:39:21.568Z,12.35
2022-09-09T19:42:07.624Z,12.80
2022-09-09T19:44:53.645Z,12.63
2022-09-09T19:47:39.727Z,13.38
2022-09-09T19:50:26.049Z,12.75
2022-09-09T19:53:12.281Z,12.50
2022-09-09T19:55:58.705Z,12.82
2022-09-09T19:58:47.544Z,15.05
2022-09-09T20:01:40.920Z,13.57
2022-09-09T20:04:27.560Z,13.98
2022-09-09T20:07:13.528Z,9.80
2022-09-09T20:09:59.369Z,8.85
2022-09-09T20:12:45.236Z,10.60
2022-09-09T20:15:31.198Z,8.63
2022-09-09T20:18:17.241Z,8.35
2022-09-09T20:21:14.277Z,7.72
2022-09-09T20:24:02.475Z,8.35
2022-09-09T20:26:49.092Z,8.18
2022-09-09T20:29:36.401Z,8.05
2022-09-09T20:32:22.380Z,8.63
2022-09-09T20:35:08.426Z,9.25
2022-09-09T20:37:54.682Z,9.02
2022-09-09T20:40:43.806Z,8.40
2022-09-09T20:43:32.734Z,7.53
2022-09-09T20:46:20.820Z,7.60
2022-09-09T20:49:08.185Z,6.60
2022-09-09T20:51:55.081Z,7.03
2022-09-09T20:54:41.820Z,6.30
2022-09-09T20:57:27.937Z,7.15
2022-09-09T21:00:14.936Z,6.70
2022-09-09T21:03:02.347Z,7.13
2022-09-09T21:05:48.694Z,8.20
2022-09-09T21:08:36.493Z,6.28
2022-09-09T21:11:22.369Z,7.82
2022-09-09T21:14:08.386Z,8.77
2022-09-09T21:16:54.535Z,8.23
2022-09-09T21:19:41.203Z,8.85
2022-09-09T21:22:27.075Z,7.95
2022-09-09T21:25:13.057Z,8.95
2022-09-09T21:27:59.153Z,8.15
2022-09-09T21:30:49.329Z,8.35
2022-09-09T21:33:35.397Z,7.88
2022-09-09T21:36:21.211Z,8.02
2022-09-09T21:39:07.013Z,9.40
2022-09-09T21:41:53.012Z,7.93
2022-09-09T21:44:40.431Z,7.70
2022-09-09T21:47:26.390Z,8.88
2022-09-09T21:50:12.525Z,7.97
2022-09-09T21:52:58.637Z,8.40
2022-09-09T21:55:47.706Z,7.78
2022-09-09T21:58:34.864Z,9.15
2022-09-09T22:01:21.184Z,8.48
2022-09-09T22:04:07.081Z,8.70
2022-09-09T22:06:52.957Z,10.10
2022-09-09T22:09:38.905Z,9.50
2022-09-09T22:12:25.264Z,8.43
2022-09-09T22:15:11.099Z,9.20
2022-09-09T22:17:58.687Z,9.18
2022-09-09T22:20:45.484Z,10.32
2022-09-09T22:23:31.783Z,9.32
2022-09-09T22:26:17.963Z,10.05
2022-09-09T22:29:04.949Z,9.65
2022-09-09T22:31:53.179Z,10.00
2022-09-09T22:34:39.169Z,10.73
2022-09-09T22:37:26.224Z,10.63
2022-09-09T22:40:14.072Z,10.63
2022-09-09T22:43:00.105Z,11.80
2022-09-09T22:45:46.582Z,11.60
2022-09-09T22:48:34.390Z,11.75
2022-09-09T22:51:20.270Z,12.80
2022-09-09T22:54:07.483Z,13.98
2022-09-09T22:56:53.847Z,12.52
2022-09-09T22:59:43.064Z,12.25
2022-09-09T23:02:29.106Z,12.32
2022-09-09T23:05:15.604Z,12.10
2022-09-09T23:08:01.749Z,12.57
2022-09-09T23:10:48.736Z,12.10
2022-09-09T23:13:37.090Z,13.18
2022-09-09T23:16:32.837Z,14.48
2022-09-09T23:19:19.921Z,13.25
2022-09-09T23:22:08.585Z,11.65
2022-09-09T23:24:55.313Z,13.18
2022-09-09T23:27:41.911Z,13.98
2022-09-09T23:30:28.332Z,12.80
2022-09-09T23:33:15.457Z,12.18
2022-09-09T23:36:03.216Z,13.38
2022-09-09T23:38:49.240Z,13.50
2022-09-09T23:41:36.750Z,13.38
2022-09-09T23:44:23.242Z,14.35
2022-09-09T23:47:09.597Z,13.98
2022-09-09T23:49:57.206Z,14.55
2022-09-09T23:52:44.073Z,15.30
2022-09-09T23:55:30.523Z,15.73
2022-09-09T23:58:16.366Z,15.57
